Time;durP1;ratioP1;P1;durP2;ratioP2;P2;SDS_P1;SDS_P2;PMS_P1;PMS_P2;Temp;Humidity;BMP_temperature;BMP_pressure;BME280_temperature;BME280_humidity;BME280_pressure;Samples;Min_cycle;Max_cycle;Signal;HPM_P1;HPM_P2
2023/08/27 00:00:49;;;;;;;0.28;0.28;;;13.20;99.90;;;;;;5092474;28;20476;-62
2023/08/27 00:03:15;;;;;;;;;;;13.50;99.90;;;;;;5094417;28;20078;-61
2023/08/27 00:05:44;;;;;;;0.20;0.20;;;13.20;99.90;;;;;;5093649;28;19977;-62
2023/08/27 00:08:13;;;;;;;0.30;0.30;;;13.40;99.90;;;;;;5093637;28;20075;-61
2023/08/27 00:10:39;;;;;;;0.20;0.20;;;13.20;99.90;;;;;;5093980;28;20059;-61
2023/08/27 00:13:05;;;;;;;0.63;0.60;;;13.40;99.90;;;;;;5093589;28;20391;-61
2023/08/27 00:15:30;;;;;;;0.45;0.45;;;13.30;99.90;;;;;;5093807;28;20114;-61
2023/08/27 00:17:56;;;;;;;0.20;0.20;;;13.20;99.90;;;;;;5093738;28;20537;-61
2023/08/27 00:20:21;;;;;;;;;;;13.40;99.90;;;;;;5092869;28;20409;-62
2023/08/27 00:22:47;;;;;;;0.20;0.20;;;13.40;99.90;;;;;;5093802;28;19923;-62
2023/08/27 00:25:13;;;;;;;0.47;0.47;;;13.50;99.90;;;;;;5093446;28;20036;-61
2023/08/27 00:27:38;;;;;;;;;;;13.40;99.90;;;;;;5094232;28;20052;-61
2023/08/27 00:30:05;;;;;;;0.50;0.50;;;13.40;99.90;;;;;;5093844;28;20321;-61
2023/08/27 00:32:34;;;;;;;0.30;0.30;;;13.90;99.90;;;;;;5093734;28;20040;-61
2023/08/27 00:35:00;;;;;;;0.38;0.38;;;13.40;99.90;;;;;;5093140;28;20055;-61
2023/08/27 00:37:26;;;;;;;0.40;0.40;;;13.60;99.90;;;;;;5093459;28;20040;-61
2023/08/27 00:39:52;;;;;;;0.70;0.70;;;13.90;99.90;;;;;;5093556;28;20048;-61
2023/08/27 00:42:18;;;;;;;0.32;0.32;;;13.40;99.90;;;;;;5092938;28;20566;-63
2023/08/27 00:44:44;;;;;;;0.10;0.10;;;13.60;99.90;;;;;;5093058;28;20130;-61
2023/08/27 00:47:10;;;;;;;;;;;13.40;99.90;;;;;;5092285;28;20040;-62
2023/08/27 00:49:37;;;;;;;0.38;0.38;;;13.40;99.90;;;;;;5092875;28;19919;-62
2023/08/27 00:52:04;;;;;;;1.27;0.45;;;13.70;99.90;;;;;;5093486;28;20070;-61
2023/08/27 00:54:31;;;;;;;0.40;0.40;;;13.50;99.90;;;;;;5092354;28;20428;-61
2023/08/27 00:56:57;;;;;;;0.40;0.40;;;13.50;99.90;;;;;;5093581;28;20434;-61
2023/08/27 00:59:23;;;;;;;0.43;0.43;;;13.70;99.90;;;;;;5093155;28;20056;-62
2023/08/27 01:01:48;;;;;;;0.35;0.35;;;13.20;99.90;;;;;;5093200;28;20055;-61
2023/08/27 01:04:14;;;;;;;;;;;13.60;99.90;;;;;;5093324;28;20066;-63
2023/08/27 01:06:40;;;;;;;0.55;0.55;;;13.30;99.90;;;;;;5093328;28;19941;-62
2023/08/27 01:09:10;;;;;;;0.65;0.52;;;13.50;99.90;;;;;;5092855;28;20095;-61
2023/08/27 01:11:54;;;;;;;0.47;0.47;;;13.50;99.90;;;;;;5092583;28;20048;-62
2023/08/27 01:14:22;;;;;;;0.43;0.40;;;13.40;99.90;;;;;;5092877;28;20052;-63
2023/08/27 01:16:50;;;;;;;0.60;0.60;;;13.70;99.90;;;;;;5092847;28;20044;-61
2023/08/27 01:19:16;;;;;;;1.23;0.85;;;13.90;99.90;;;;;;5092787;28;20066;-61
2023/08/27 01:21:43;;;;;;;0.65;0.65;;;13.30;99.90;;;;;;5092687;28;20056;-61
2023/08/27 01:24:08;;;;;;;;;;;13.10;99.90;;;;;;5093077;28;20048;-62
2023/08/27 01:26:47;;;;;;;0.43;0.43;;;13.70;99.90;;;;;;5092556;28;20413;-62
2023/08/27 01:29:26;;;;;;;0.47;0.47;;;13.00;99.90;;;;;;5092665;28;20056;-62
2023/08/27 01:32:04;;;;;;;0.28;0.28;;;13.50;99.90;;;;;;5092271;28;20520;-62
2023/08/27 01:34:30;;;;;;;0.47;0.47;;;13.70;99.90;;;;;;5092282;28;20558;-62
2023/08/27 01:36:57;;;;;;;0.75;0.75;;;13.60;99.90;;;;;;5092338;28;20048;-63
2023/08/27 01:39:23;;;;;;;0.63;0.55;;;13.80;99.90;;;;;;5092409;28;20055;-62
2023/08/27 01:41:51;;;;;;;0.50;0.50;;;13.60;99.90;;;;;;5092403;28;20048;-62
2023/08/27 01:44:17;;;;;;;0.50;0.50;;;13.50;99.90;;;;;;5092396;28;20048;-62
2023/08/27 01:46:43;;;;;;;;;;;13.60;99.90;;;;;;5092654;28;20530;-63
2023/08/27 01:49:09;;;;;;;0.75;0.75;;;13.50;99.90;;;;;;5091924;28;19920;-62
2023/08/27 01:51:34;;;;;;;1.25;0.95;;;13.80;99.90;;;;;;5092041;28;20056;-61
2023/08/27 01:54:00;;;;;;;0.63;0.60;;;13.40;99.90;;;;;;5092060;28;20043;-62
2023/08/27 01:56:26;;;;;;;;;;;13.60;99.90;;;;;;5092563;28;20538;-61
2023/08/27 01:58:51;;;;;;;1.63;0.93;;;13.20;99.90;;;;;;5092108;28;19924;-62
2023/08/27 02:01:17;;;;;;;0.50;0.50;;;12.80;99.90;;;;;;5092062;28;20093;-61
2023/08/27 02:03:43;;;;;;;0.52;0.52;;;13.50;99.90;;;;;;5092052;28;20044;-62
2023/08/27 02:06:09;;;;;;;0.65;0.30;;;13.10;99.90;;;;;;5091853;28;20152;-62
2023/08/27 02:08:34;;;;;;;0.43;0.43;;;13.20;99.90;;;;;;5090694;28;20087;-61
2023/08/27 02:11:00;;;;;;;0.22;0.22;;;13.40;99.90;;;;;;5057531;28;20056;-62
2023/08/27 02:13:26;;;;;;;;;;;12.90;99.90;;;;;;5092207;28;20129;-62
2023/08/27 02:15:51;;;;;;;0.65;0.65;;;13.20;99.90;;;;;;5091864;28;19973;-62
2023/08/27 02:18:17;;;;;;;0.30;0.30;;;13.30;99.90;;;;;;5091758;28;20048;-62
2023/08/27 02:20:43;;;;;;;0.30;0.30;;;13.10;99.90;;;;;;5091766;28;20048;-62
2023/08/27 02:23:09;;;;;;;0.20;0.20;;;13.10;99.90;;;;;;5091242;28;20062;-62
2023/08/27 02:25:35;;;;;;;0.20;0.20;;;13.50;99.90;;;;;;5091846;28;20040;-61
2023/08/27 02:28:00;;;;;;;0.85;0.60;;;12.80;99.90;;;;;;5091965;28;20048;-62
2023/08/27 02:30:26;;;;;;;;;;;13.50;99.90;;;;;;5092202;28;20048;-62
2023/08/27 02:32:52;;;;;;;0.30;0.30;;;13.30;99.90;;;;;;5091766;28;19923;-62
2023/08/27 02:35:18;;;;;;;;;;;13.20;99.90;;;;;;5092177;28;20051;-62
2023/08/27 02:37:44;;;;;;;0.30;0.30;;;13.10;99.90;;;;;;5091714;28;19924;-62
2023/08/27 02:40:10;;;;;;;0.45;0.45;;;13.50;99.90;;;;;;5091925;28;20507;-62
2023/08/27 02:42:36;;;;;;;;;;;12.90;99.90;;;;;;5091875;28;20055;-61
2023/08/27 02:45:02;;;;;;;0.20;0.20;;;13.30;99.90;;;;;;5091599;28;19924;-63
2023/08/27 02:47:28;;;;;;;0.98;0.75;;;12.80;99.90;;;;;;5091261;28;20328;-62
2023/08/27 02:49:53;;;;;;;0.68;0.68;;;13.30;99.90;;;;;;5091206;28;20063;-62
2023/08/27 02:52:19;;;;;;;0.50;0.50;;;13.30;99.90;;;;;;5091385;28;20059;-63
2023/08/27 02:54:45;;;;;;;0.28;0.28;;;13.10;99.90;;;;;;5091494;28;20097;-62
2023/08/27 02:57:10;;;;;;;0.40;0.40;;;13.40;99.90;;;;;;5091221;28;20048;-63
2023/08/27 02:59:36;;;;;;;;;;;13.30;99.90;;;;;;5091778;28;20450;-62
2023/08/27 03:02:02;;;;;;;0.40;0.40;;;12.70;99.90;;;;;;5090608;28;19924;-62
2023/08/27 03:04:27;;;;;;;0.20;0.20;;;13.00;99.90;;;;;;5091319;28;20052;-63
2023/08/27 03:06:53;;;;;;;0.47;0.47;;;13.00;99.90;;;;;;5091397;28;20040;-62
2023/08/27 03:09:19;;;;;;;2.10;0.50;;;12.90;99.90;;;;;;5090933;28;20048;-62
2023/08/27 03:11:44;;;;;;;0.40;0.40;;;12.60;99.90;;;;;;5091262;28;20052;-62
2023/08/27 03:14:10;;;;;;;0.43;0.43;;;13.20;99.90;;;;;;5091017;28;20136;-62
2023/08/27 03:16:36;;;;;;;0.35;0.35;;;12.40;99.90;;;;;;5091322;28;20039;-62
2023/08/27 03:19:02;;;;;;;0.32;0.32;;;12.80;99.90;;;;;;5091024;28;20052;-63
2023/08/27 03:21:28;;;;;;;0.20;0.20;;;13.10;99.90;;;;;;5091508;28;20052;-63
2023/08/27 03:23:53;;;;;;;1.02;0.50;;;12.80;99.90;;;;;;5091058;28;20480;-62
2023/08/27 03:26:19;;;;;;;0.52;0.52;;;13.10;99.90;;;;;;5090975;28;20442;-62
2023/08/27 03:28:46;;;;;;;0.45;0.40;;;12.90;99.90;;;;;;5091178;28;20055;-63
2023/08/27 03:31:12;;;;;;;0.35;0.35;;;12.50;99.90;;;;;;5091139;28;20050;-62
2023/08/27 03:33:37;;;;;;;0.22;0.22;;;13.20;99.90;;;;;;5090941;28;20051;-62
2023/08/27 03:36:04;;;;;;;0.60;0.60;;;12.90;99.90;;;;;;5093937;28;20048;-62
2023/08/27 03:38:29;;;;;;;0.45;0.45;;;12.50;99.90;;;;;;5094845;28;20051;-62
2023/08/27 03:40:55;;;;;;;0.57;0.57;;;12.80;99.90;;;;;;5094754;28;20426;-62
2023/08/27 03:43:21;;;;;;;0.75;0.57;;;12.50;99.90;;;;;;5094663;28;20047;-62
2023/08/27 03:45:46;;;;;;;0.63;0.63;;;12.60;99.90;;;;;;5094312;28;20468;-62
2023/08/27 03:48:12;;;;;;;0.45;0.45;;;13.20;99.90;;;;;;5094077;28;20044;-61
2023/08/27 03:50:38;;;;;;;0.45;0.45;;;12.80;99.90;;;;;;5094496;28;20040;-62
2023/08/27 03:53:06;;;;;;;0.47;0.45;;;13.10;99.90;;;;;;5094162;28;20052;-62
2023/08/27 03:55:41;;;;;;;0.75;0.70;;;12.50;99.90;;;;;;5093799;28;20055;-62
2023/08/27 03:58:08;;;;;;;0.30;0.30;;;12.80;99.90;;;;;;5094065;28;20488;-62
2023/08/27 04:00:35;;;;;;;0.20;0.20;;;13.00;99.90;;;;;;5093795;28;20098;-62
2023/08/27 04:03:02;;;;;;;0.50;0.50;;;13.40;99.90;;;;;;5094501;28;20052;-62
2023/08/27 04:05:27;;;;;;;0.85;0.82;;;13.10;99.90;;;;;;5093884;28;20043;-61
2023/08/27 04:07:53;;;;;;;0.60;0.60;;;13.00;99.90;;;;;;5094108;28;20040;-62
2023/08/27 04:10:19;;;;;;;;;;;13.30;99.90;;;;;;5094629;28;20056;-61
2023/08/27 04:12:44;;;;;;;0.43;0.43;;;13.40;99.90;;;;;;5093769;28;19931;-62
2023/08/27 04:15:10;;;;;;;;;;;13.10;99.90;;;;;;5093935;28;20490;-63
2023/08/27 04:17:36;;;;;;;0.40;0.40;;;13.60;99.90;;;;;;5094025;28;19924;-62
2023/08/27 04:20:01;;;;;;;0.30;0.30;;;13.70;99.90;;;;;;5094448;28;20101;-62
2023/08/27 04:22:27;;;;;;;0.88;0.57;;;12.90;99.90;;;;;;5094309;28;20044;-62
2023/08/27 04:24:55;;;;;;;0.57;0.57;;;13.80;99.90;;;;;;5093958;28;20081;-62
2023/08/27 04:27:20;;;;;;;0.40;0.40;;;13.50;99.90;;;;;;5093918;28;20055;-62
2023/08/27 04:29:46;;;;;;;0.77;0.77;;;13.10;99.90;;;;;;5093817;28;20048;-62
2023/08/27 04:32:12;;;;;;;0.52;0.52;;;13.60;99.90;;;;;;5093789;28;20048;-62
2023/08/27 04:34:38;;;;;;;0.50;0.50;;;12.90;99.90;;;;;;5093768;28;20044;-62
2023/08/27 04:37:03;;;;;;;0.98;0.90;;;12.80;99.90;;;;;;5093494;28;20048;-62
2023/08/27 04:39:30;;;;;;;0.55;0.55;;;13.10;99.90;;;;;;5093642;28;20044;-62
2023/08/27 04:41:56;;;;;;;0.70;0.70;;;13.50;99.90;;;;;;5093539;28;20056;-62
2023/08/27 04:44:22;;;;;;;0.50;0.50;;;13.60;99.90;;;;;;5093594;28;20056;-62
2023/08/27 04:46:48;;;;;;;0.40;0.40;;;13.40;99.90;;;;;;5092822;28;20055;-61
2023/08/27 04:49:14;;;;;;;0.20;0.20;;;13.20;99.90;;;;;;5092108;28;20530;-62
2023/08/27 04:51:40;;;;;;;0.20;0.20;;;13.30;99.90;;;;;;5093489;28;20047;-61
2023/08/27 04:54:06;;;;;;;1.42;1.17;;;12.80;99.90;;;;;;5092316;28;20685;-61
2023/08/27 04:56:31;;;;;;;0.60;0.60;;;13.20;99.90;;;;;;5093311;28;20074;-63
2023/08/27 04:58:57;;;;;;;1.15;0.52;;;12.80;99.90;;;;;;5091781;28;20070;-62
2023/08/27 05:01:23;;;;;;;0.98;0.85;;;13.30;99.90;;;;;;5092969;28;20125;-63
2023/08/27 05:03:48;;;;;;;;;;;13.40;99.90;;;;;;5093316;28;20076;-62
2023/08/27 05:06:14;;;;;;;2.05;1.42;;;13.10;99.90;;;;;;5093036;28;19943;-61
2023/08/27 05:08:42;;;;;;;;;;;13.30;99.90;;;;;;5093424;28;20123;-61
2023/08/27 05:11:08;;;;;;;0.40;0.40;;;13.50;99.90;;;;;;5093133;28;19927;-62
2023/08/27 05:13:34;;;;;;;0.30;0.30;;;13.10;99.90;;;;;;5092915;28;20044;-61
2023/08/27 05:16:00;;;;;;;0.63;0.43;;;13.10;99.90;;;;;;5092461;28;20044;-62
2023/08/27 05:18:25;;;;;;;0.40;0.40;;;13.20;99.90;;;;;;5092867;28;20109;-61
2023/08/27 05:20:51;;;;;;;;;;;13.00;99.90;;;;;;5093161;28;20058;-62
2023/08/27 05:23:17;;;;;;;0.90;0.68;;;13.60;99.90;;;;;;5092770;28;19920;-62
2023/08/27 05:25:44;;;;;;;0.65;0.65;;;13.50;99.90;;;;;;5092253;28;20510;-61
2023/08/27 05:28:10;;;;;;;0.35;0.35;;;13.50;99.90;;;;;;5092624;28;20047;-62
2023/08/27 05:30:35;;;;;;;0.55;0.55;;;13.60;99.90;;;;;;5092631;28;20040;-61
2023/08/27 05:33:02;;;;;;;;;;;13.50;99.90;;;;;;5092976;28;20040;-62
2023/08/27 05:35:27;;;;;;;0.80;0.50;;;13.60;99.90;;;;;;5092413;28;19920;-61
2023/08/27 05:37:53;;;;;;;0.57;0.57;;;13.10;99.90;;;;;;5092494;28;20048;-61
2023/08/27 05:40:19;;;;;;;0.20;0.20;;;13.70;99.90;;;;;;5092416;28;20050;-62
2023/08/27 05:42:45;;;;;;;0.80;0.80;;;13.50;99.90;;;;;;5092435;28;20063;-62
2023/08/27 05:45:11;;;;;;;1.00;0.50;;;13.50;99.90;;;;;;5092348;28;20048;-61
2023/08/27 05:47:36;;;;;;;2.28;0.88;;;13.60;99.90;;;;;;5092298;28;20074;-62
2023/08/27 05:50:02;;;;;;;1.50;0.77;;;13.40;99.90;;;;;;5092334;28;20071;-62
2023/08/27 05:52:28;;;;;;;0.55;0.55;;;13.40;99.90;;;;;;5092285;28;20066;-61
2023/08/27 05:54:53;;;;;;;1.05;1.05;;;13.90;99.90;;;;;;5092213;28;20539;-61
2023/08/27 05:57:19;;;;;;;1.45;0.80;;;13.80;99.90;;;;;;5092163;28;20121;-63
2023/08/27 05:59:45;;;;;;;0.40;0.40;;;13.80;99.90;;;;;;5091263;28;20044;-62
2023/08/27 06:02:13;;;;;;;0.60;0.60;;;14.50;99.90;;;;;;5092167;28;20044;-61
2023/08/27 06:04:39;;;;;;;0.55;0.55;;;14.40;99.90;;;;;;5091952;28;20054;-62
2023/08/27 06:07:07;;;;;;;0.38;0.38;;;14.40;99.90;;;;;;5091911;28;20595;-62
2023/08/27 06:09:33;;;;;;;4.70;1.20;;;14.00;99.90;;;;;;5091381;28;20496;-62
2023/08/27 06:11:59;;;;;;;0.47;0.47;;;14.50;99.90;;;;;;5092237;28;20113;-62
2023/08/27 06:14:25;;;;;;;0.88;0.63;;;14.30;99.90;;;;;;5091997;28;20077;-62
2023/08/27 06:16:50;;;;;;;0.47;0.47;;;14.10;99.90;;;;;;5091889;28;20055;-62
2023/08/27 06:19:16;;;;;;;;;;;14.30;99.90;;;;;;5092189;28;20087;-63
2023/08/27 06:21:41;;;;;;;0.30;0.30;;;14.50;99.90;;;;;;5084653;28;19931;-65
2023/08/27 06:24:07;;;;;;;1.27;1.00;;;14.20;99.90;;;;;;5090486;28;20044;-64
2023/08/27 06:26:33;;;;;;;;;;;14.20;99.90;;;;;;5091510;28;20127;-62
2023/08/27 06:28:58;;;;;;;1.05;0.90;;;14.60;99.90;;;;;;5090038;28;19920;-64
2023/08/27 06:31:24;;;;;;;0.75;0.75;;;14.50;99.90;;;;;;5091087;28;20040;-62
2023/08/27 06:33:49;;;;;;;0.70;0.70;;;13.90;99.90;;;;;;5090639;28;20117;-62
2023/08/27 06:36:15;;;;;;;;;;;14.90;99.90;;;;;;5090785;28;20048;-62
2023/08/27 06:38:41;;;;;;;0.63;0.60;;;15.10;99.90;;;;;;5091054;28;19955;-62
2023/08/27 06:41:06;;;;;;;0.55;0.55;;;14.20;99.90;;;;;;5090951;28;20118;-63
2023/08/27 06:43:32;;;;;;;;;;;15.40;99.90;;;;;;5090915;28;20104;-62
2023/08/27 06:45:58;;;;;;;0.47;0.47;;;15.40;99.90;;;;;;5090901;28;20234;-62
2023/08/27 06:48:23;;;;;;;;;;;14.90;99.90;;;;;;5091391;28;20055;-62
2023/08/27 06:50:49;;;;;;;0.75;0.65;;;15.20;99.90;;;;;;5090251;28;19974;-64
2023/08/27 06:53:15;;;;;;;;;;;15.10;99.90;;;;;;5090653;28;20048;-63
2023/08/27 06:55:40;;;;;;;0.30;0.30;;;14.90;99.90;;;;;;5090401;28;19936;-62
2023/08/27 06:58:06;;;;;;;;;;;15.10;99.90;;;;;;5090655;28;20083;-63
2023/08/27 07:00:32;;;;;;;0.90;0.63;;;15.20;99.90;;;;;;5081236;28;19945;-61
2023/08/27 07:02:57;;;;;;;;;;;15.10;99.90;;;;;;5083766;28;20052;-64
2023/08/27 07:05:23;;;;;;;0.50;0.50;;;14.90;99.90;;;;;;5076406;28;19974;-64
2023/08/27 07:07:49;;;;;;;0.40;0.40;;;15.20;99.90;;;;;;5077375;28;20051;-64
2023/08/27 07:10:15;;;;;;;0.63;0.63;;;15.00;99.90;;;;;;5088531;28;20052;-63
2023/08/27 07:12:41;;;;;;;0.68;0.68;;;14.90;99.90;;;;;;5087228;28;20052;-62
2023/08/27 07:15:07;;;;;;;;;;;14.70;99.90;;;;;;5082504;28;20178;-61
2023/08/27 07:17:33;;;;;;;0.28;0.28;;;15.00;99.90;;;;;;5078925;28;19928;-63
2023/08/27 07:20:03;;;;;;;0.20;0.20;;;15.10;99.90;;;;;;5074058;28;20067;-65
2023/08/27 07:22:29;;;;;;;0.50;0.50;;;15.30;99.90;;;;;;5087022;28;20163;-63
2023/08/27 07:24:55;;;;;;;;;;;15.70;99.90;;;;;;5082526;28;20078;-62
2023/08/27 07:27:21;;;;;;;0.30;0.30;;;15.50;99.90;;;;;;5079341;28;19931;-62
2023/08/27 07:29:47;;;;;;;0.38;0.38;;;15.50;99.90;;;;;;5075110;28;20052;-61
2023/08/27 07:32:12;;;;;;;;;;;15.80;99.90;;;;;;5087903;28;20052;-63
2023/08/27 07:34:38;;;;;;;0.88;0.65;;;15.60;99.90;;;;;;5084245;28;20292;-61
2023/08/27 07:37:04;;;;;;;;;;;15.30;99.90;;;;;;5078694;28;20047;-63
2023/08/27 07:39:29;;;;;;;0.80;0.77;;;15.10;99.90;;;;;;5075976;28;19928;-62
2023/08/27 07:41:55;;;;;;;;;;;15.20;99.90;;;;;;5087756;28;20476;-61
2023/08/27 07:44:20;;;;;;;0.68;0.68;;;15.50;99.90;;;;;;5083766;28;19927;-61
2023/08/27 07:46:46;;;;;;;;;;;15.80;99.90;;;;;;5078904;28;20040;-61
2023/08/27 07:49:12;;;;;;;2.92;1.08;;;15.70;99.90;;;;;;5075429;28;19924;-62
2023/08/27 07:51:37;;;;;;;;;;;15.20;99.90;;;;;;5084498;28;20048;-63
2023/08/27 07:54:03;;;;;;;1.40;0.90;;;16.10;99.90;;;;;;5089771;28;20372;-63
2023/08/27 07:56:29;;;;;;;;;;;15.70;99.90;;;;;;5091915;28;20081;-63
2023/08/27 07:58:55;;;;;;;1.25;0.95;;;15.40;99.90;;;;;;5091188;28;19920;-61
2023/08/27 08:01:20;;;;;;;;;;;15.90;99.90;;;;;;5090187;28;20545;-62
2023/08/27 08:03:46;;;;;;;0.70;0.70;;;15.70;99.90;;;;;;5086924;28;19963;-60
2023/08/27 08:06:12;;;;;;;;;;;16.40;99.90;;;;;;5079125;28;20086;-62
2023/08/27 08:08:38;;;;;;;0.68;0.60;;;16.20;99.90;;;;;;5090899;28;20308;-65
2023/08/27 08:11:04;;;;;;;;;;;16.30;99.90;;;;;;5080038;28;20052;-64
2023/08/27 08:13:32;;;;;;;0.30;0.30;;;16.10;99.90;;;;;;5086228;28;19920;-64
2023/08/27 08:15:58;;;;;;;0.65;0.65;;;16.70;99.90;;;;;;5081724;28;20075;-62
2023/08/27 08:18:23;;;;;;;0.40;0.40;;;16.60;99.90;;;;;;5082187;28;20070;-65
2023/08/27 08:20:53;;;;;;;;;;;16.40;99.90;;;;;;5088848;28;20048;-64
2023/08/27 08:23:19;;;;;;;1.15;1.05;;;16.70;99.90;;;;;;5092209;28;20697;-64
2023/08/27 08:25:49;;;;;;;;;;;17.10;99.90;;;;;;5093681;28;20043;-66
2023/08/27 08:28:15;;;;;;;0.95;0.95;;;16.90;99.90;;;;;;5092841;28;19950;-64
2023/08/27 08:30:45;;;;;;;1.42;0.95;;;17.00;99.90;;;;;;5092770;28;20044;-63
2023/08/27 08:33:11;;;;;;;0.90;0.73;;;17.40;99.90;;;;;;5078705;28;20062;-64
2023/08/27 08:35:37;;;;;;;;;;;17.10;99.90;;;;;;5093664;28;20559;-64
2023/08/27 08:38:03;;;;;;;0.65;0.65;;;17.30;99.90;;;;;;5093035;28;20022;-63
2023/08/27 08:40:30;;;;;;;12.18;1.75;;;17.30;99.90;;;;;;5092659;28;20087;-63
2023/08/27 08:42:58;;;;;;;0.25;0.25;;;17.20;99.90;;;;;;5113342;28;20074;-64
2023/08/27 08:45:37;;;;;;;0.10;0.10;;;16.80;99.90;;;;;;5113217;28;20440;-64
2023/08/27 08:48:06;;;;;;;0.88;0.40;;;17.70;99.90;;;;;;5071920;28;20797;-63
2023/08/27 08:50:35;;;;;;;0.77;0.77;;;17.60;99.90;;;;;;5072794;28;20041;-65
2023/08/27 08:53:12;;;;;;;0.32;0.32;;;17.30;99.90;;;;;;5072933;28;20074;-64
2023/08/27 08:55:40;;;;;;;0.47;0.47;;;17.70;99.90;;;;;;5072499;28;20120;-63
2023/08/27 08:58:11;;;;;;;0.70;0.50;;;17.60;99.90;;;;;;5092678;28;20059;-63
2023/08/27 09:00:36;;;;;;;0.20;0.20;;;17.60;99.90;;;;;;5092782;28;20472;-64
2023/08/27 09:03:03;;;;;;;0.10;0.10;;;17.70;99.90;;;;;;5091905;28;20097;-62
2023/08/27 09:05:32;;;;;;;0.35;0.25;;;17.80;99.90;;;;;;5091298;28;20052;-63
2023/08/27 09:07:58;;;;;;;0.40;0.40;;;18.20;99.90;;;;;;5092640;28;20044;-64
2023/08/27 09:10:27;;;;;;;0.73;0.30;;;18.30;99.90;;;;;;5091540;28;20850;-62
2023/08/27 09:12:56;;;;;;;0.30;0.30;;;18.10;99.90;;;;;;5091313;28;20419;-62
2023/08/27 09:15:22;;;;;;;0.20;0.20;;;18.40;99.90;;;;;;5092888;28;20482;-63
2023/08/27 09:17:48;;;;;;;0.15;0.15;;;17.90;99.90;;;;;;5092265;28;20043;-62
2023/08/27 09:20:15;;;;;;;0.70;0.70;;;18.40;99.90;;;;;;5092700;28;20643;-63
2023/08/27 09:22:41;;;;;;;0.20;0.20;;;18.20;99.90;;;;;;5092760;28;20092;-63
2023/08/27 09:25:09;;;;;;;0.20;0.20;;;18.30;99.90;;;;;;5092588;28;20044;-63
2023/08/27 09:27:35;;;;;;;0.38;0.32;;;18.50;99.90;;;;;;5092682;28;20055;-62
2023/08/27 09:30:05;;;;;;;0.15;0.15;;;18.20;99.90;;;;;;5085738;28;20385;-62
2023/08/27 09:32:31;;;;;;;0.30;0.30;;;18.90;99.90;;;;;;5091701;28;20189;-63
2023/08/27 09:34:58;;;;;;;1.55;0.85;;;18.50;99.90;;;;;;5105202;28;20047;-64
2023/08/27 09:37:36;;;;;;;0.30;0.30;;;19.10;99.90;;;;;;5111792;28;20052;-64
2023/08/27 09:40:04;;;;;;;0.30;0.30;;;19.20;99.90;;;;;;5112074;28;20040;-63
2023/08/27 09:42:32;;;;;;;0.20;0.20;;;18.50;99.90;;;;;;5112025;28;20047;-62
2023/08/27 09:44:58;;;;;;;0.35;0.32;;;18.30;99.90;;;;;;5110624;28;20446;-63
2023/08/27 09:47:35;;;;;;;0.52;0.20;;;18.30;99.90;;;;;;5112081;28;20077;-65
2023/08/27 09:50:06;;;;;;;0.25;0.20;;;18.00;99.90;;;;;;5111936;28;20075;-62
2023/08/27 09:52:33;;;;;;;0.95;0.57;;;18.00;99.90;;;;;;5111677;28;20251;-62
2023/08/27 09:54:59;;;;;;;0.20;0.20;;;17.90;99.90;;;;;;5111351;28;20483;-64
2023/08/27 09:57:25;;;;;;;0.10;0.10;;;17.70;99.90;;;;;;5102235;28;20054;-65
2023/08/27 09:59:52;;;;;;;0.10;0.10;;;17.40;99.90;;;;;;5101744;28;20039;-63
2023/08/27 10:02:19;;;;;;;0.10;0.10;;;17.40;99.90;;;;;;5112103;28;20082;-63
2023/08/27 10:04:53;;;;;;;0.30;0.30;;;17.10;99.90;;;;;;5111720;28;20150;-64
2023/08/27 10:07:19;;;;;;;0.20;0.20;;;17.20;99.90;;;;;;5111405;28;20051;-64
2023/08/27 10:09:53;;;;;;;0.43;0.38;;;17.00;99.90;;;;;;5111160;28;20062;-65
2023/08/27 10:12:20;;;;;;;0.75;0.30;;;16.80;99.90;;;;;;5109906;28;20131;-66
2023/08/27 10:14:46;;;;;;;0.20;0.20;;;17.40;99.90;;;;;;5110199;28;20084;-64
2023/08/27 10:17:14;;;;;;;0.05;0.05;;;17.40;99.90;;;;;;5110710;28;20057;-62
2023/08/27 10:19:40;;;;;;;0.00;0.00;;;17.60;99.90;;;;;;5111794;28;20051;-64
2023/08/27 10:22:06;;;;;;;0.40;0.40;;;17.50;99.90;;;;;;5111817;28;20126;-63
2023/08/27 10:24:33;;;;;;;0.10;0.10;;;17.50;99.90;;;;;;5111918;28;20529;-62
2023/08/27 10:27:00;;;;;;;0.20;0.20;;;17.70;99.90;;;;;;5111873;28;20130;-64
2023/08/27 10:29:27;;;;;;;0.20;0.20;;;17.50;99.90;;;;;;5111699;28;20130;-63
2023/08/27 10:31:53;;;;;;;0.10;0.10;;;17.70;99.90;;;;;;5111750;28;20055;-62
2023/08/27 10:34:23;;;;;;;0.10;0.10;;;17.70;99.90;;;;;;5111972;28;20051;-63
2023/08/27 10:36:51;;;;;;;0.10;0.10;;;17.80;99.90;;;;;;5111944;28;20043;-63
2023/08/27 10:39:20;;;;;;;0.10;0.10;;;17.50;99.90;;;;;;5111275;28;20597;-63
2023/08/27 10:41:46;;;;;;;0.00;0.00;;;17.30;99.90;;;;;;5098167;28;20039;-62
2023/08/27 10:44:20;;;;;;;0.10;0.10;;;17.20;99.90;;;;;;5090239;28;20046;-63
2023/08/27 10:47:14;;;;;;;0.10;0.10;;;17.00;99.90;;;;;;5088915;28;20123;-61
2023/08/27 10:49:41;;;;;;;0.10;0.10;;;16.90;99.90;;;;;;5075310;28;20048;-63
2023/08/27 10:52:14;;;;;;;0.20;0.20;;;16.90;99.90;;;;;;5090384;28;20123;-61
2023/08/27 10:54:40;;;;;;;0.90;0.88;;;16.60;99.90;;;;;;5095290;28;20176;-65
2023/08/27 10:57:21;;;;;;;0.10;0.10;;;16.00;99.90;;;;;;5094590;28;20510;-62
2023/08/27 10:59:47;;;;;;;1.38;0.22;;;15.30;99.90;;;;;;5095363;28;20580;-62
2023/08/27 11:02:15;;;;;;;0.10;0.10;;;14.50;99.90;;;;;;5094995;28;20090;-63
2023/08/27 11:04:49;;;;;;;0.10;0.10;;;14.80;99.90;;;;;;5094893;28;20059;-62
2023/08/27 11:07:19;;;;;;;0.10;0.10;;;13.80;99.90;;;;;;5094891;28;20048;-62
2023/08/27 11:09:56;;;;;;;0.10;0.10;;;13.50;99.90;;;;;;5094618;28;20063;-62
2023/08/27 11:12:32;;;;;;;;;;;14.50;99.90;;;;;;5095351;28;20051;-62
2023/08/27 11:15:15;;;;;;;0.70;0.55;;;14.00;99.90;;;;;;5094627;28;20012;-62
2023/08/27 11:17:42;;;;;;;0.10;0.10;;;14.00;99.90;;;;;;5094628;28;20073;-65
2023/08/27 11:20:22;;;;;;;0.20;0.20;;;14.40;99.90;;;;;;5094996;28;20396;-64
2023/08/27 11:23:07;;;;;;;0.75;0.43;;;13.60;99.90;;;;;;5094701;28;20395;-64
2023/08/27 11:25:35;;;;;;;0.17;0.17;;;15.00;99.90;;;;;;5094709;28;20040;-63
2023/08/27 11:28:04;;;;;;;0.40;0.40;;;14.30;99.90;;;;;;5090140;28;20066;-63
2023/08/27 11:30:30;;;;;;;0.30;0.30;;;14.40;99.90;;;;;;5093157;28;20051;-67
2023/08/27 11:32:56;;;;;;;0.15;0.15;;;14.70;99.90;;;;;;5092002;28;20127;-64
2023/08/27 11:35:23;;;;;;;;;;;14.80;99.90;;;;;;5094828;28;20047;-63
2023/08/27 11:37:49;;;;;;;0.10;0.10;;;14.30;99.90;;;;;;5094194;28;19920;-63
2023/08/27 11:40:15;;;;;;;;;;;14.10;99.90;;;;;;5093920;28;20044;-62
2023/08/27 11:42:55;;;;;;;0.20;0.20;;;14.80;99.90;;;;;;5093567;28;19924;-63
2023/08/27 11:45:35;;;;;;;0.10;0.10;;;14.30;99.90;;;;;;5093069;28;20040;-63
2023/08/27 11:48:02;;;;;;;0.17;0.17;;;13.60;99.90;;;;;;5094338;28;20048;-65
2023/08/27 11:50:28;;;;;;;0.10;0.10;;;13.40;99.90;;;;;;5094313;28;20090;-63
2023/08/27 11:52:57;;;;;;;0.10;0.10;;;13.80;99.90;;;;;;5094564;28;20056;-62
2023/08/27 11:55:24;;;;;;;0.20;0.20;;;14.20;99.90;;;;;;5093540;28;20176;-62
2023/08/27 11:57:52;;;;;;;0.10;0.10;;;14.30;99.90;;;;;;5094123;28;20084;-63
2023/08/27 12:00:18;;;;;;;0.20;0.20;;;13.40;99.90;;;;;;5094140;28;20048;-62
2023/08/27 12:02:44;;;;;;;0.10;0.10;;;13.40;99.90;;;;;;5094023;28;20044;-62
2023/08/27 12:05:10;;;;;;;0.20;0.20;;;13.60;99.90;;;;;;5093744;28;20043;-61
2023/08/27 12:07:36;;;;;;;0.30;0.30;;;13.70;99.90;;;;;;5094058;28;20091;-62
2023/08/27 12:10:09;;;;;;;;;;;13.50;99.90;;;;;;5093444;28;20067;-63
2023/08/27 12:12:39;;;;;;;0.10;0.10;;;13.70;99.90;;;;;;5092765;28;19924;-65
2023/08/27 12:15:06;;;;;;;0.20;0.20;;;13.90;99.90;;;;;;5091920;28;20055;-63
2023/08/27 12:17:33;;;;;;;0.10;0.10;;;14.10;99.90;;;;;;5091996;28;20051;-62
2023/08/27 12:20:01;;;;;;;0.10;0.10;;;15.20;99.90;;;;;;5093009;28;20105;-63
2023/08/27 12:22:26;;;;;;;0.10;0.10;;;14.10;99.90;;;;;;5092995;28;20052;-64
2023/08/27 12:24:54;;;;;;;0.10;0.10;;;14.30;99.90;;;;;;5091386;28;20109;-63
2023/08/27 12:27:22;;;;;;;0.10;0.10;;;15.10;99.90;;;;;;5092137;28;20055;-63
2023/08/27 12:29:52;;;;;;;0.30;0.20;;;14.00;99.90;;;;;;5093208;28;20047;-62
2023/08/27 12:32:21;;;;;;;0.15;0.15;;;15.20;99.90;;;;;;5093886;28;20047;-62
2023/08/27 12:34:51;;;;;;;0.25;0.25;;;15.10;99.90;;;;;;5092190;28;20087;-63
2023/08/27 12:37:18;;;;;;;0.10;0.10;;;15.20;99.90;;;;;;5093527;28;20059;-62
2023/08/27 12:39:45;;;;;;;0.10;0.10;;;14.20;99.90;;;;;;5092314;28;20396;-63
2023/08/27 12:42:12;;;;;;;0.10;0.10;;;14.90;99.90;;;;;;5093558;28;20196;-61
2023/08/27 12:44:38;;;;;;;0.47;0.35;;;15.00;99.90;;;;;;5093063;28;20048;-62
2023/08/27 12:47:06;;;;;;;0.20;0.20;;;15.70;99.90;;;;;;5092999;28;20048;-62
2023/08/27 12:49:32;;;;;;;0.10;0.10;;;15.70;99.90;;;;;;5092966;28;20112;-62
2023/08/27 12:51:58;;;;;;;;;;;15.50;99.90;;;;;;5093521;28;20369;-62
2023/08/27 12:54:24;;;;;;;0.25;0.25;;;15.50;99.90;;;;;;5092367;28;19927;-62
2023/08/27 12:56:49;;;;;;;0.10;0.10;;;15.50;99.90;;;;;;5093015;28;20056;-63